Latest Weather Observations for Karratha

IDW60801

Issued at 10:33 am WST Friday 1 July 2016 (issued every 30 minutes, with the page automatically refreshed every 10 minutes)

About weather observations | Map of weather stations | Latest weather observations for WA | Other Formats
Station Details ID: 004083 Name: KARRATHA AERO Lat: -20.71 Lon: 116.77 Height: 5.3 m
Data from the previous 72 hours. | See also: Recent months at Karratha
Date/Time
WST
Temp
°C
App
Temp
°C
Dew
Point
°C
Rel
Hum
%
Delta-T
°C
Wind Press
QNH
hPa
Press
MSL
hPa
Rain since
9am
mm
Dir  Spd
km/h
Gust
km/h
Spd
kts
Gust
kts
01/10:30am 21.6 19.8 15.9 70 3.4 ENE 20 26 11 14 1018.5 1018.5 0.0
01/10:00am 21.3 19.1 16.0 72 3.2 ENE 22 28 12 15 1018.5 1018.5 0.0
01/09:30am 20.7 19.1 16.1 75 2.8 ENE 19 22 10 12 1018.5 1018.5 0.0
01/09:00am 20.6 18.9 15.8 74 2.9 E 19 24 10 13 1018.3 1018.3 0.0
01/08:30am 20.4 18.7 16.2 77 2.5 E 20 26 11 14 1018.2 1018.2 0.0
01/08:00am 20.3 18.7 15.9 76 2.6 E 19 24 10 13 1017.6 1017.6 0.0
01/07:30am 20.2 18.3 15.8 76 2.6 E 20 26 11 14 1017.3 1017.3 0.0
01/07:00am 20.4 19.1 15.8 75 2.7 ESE 17 24 9 13 1017.3 1017.3 0.0
01/06:30am 20.3 18.9 16.5 79 2.3 E 19 22 10 12 1016.8 1016.8 0.0
01/06:00am 20.2 19.7 16.8 81 2.1 ENE 15 20 8 11 1016.1 1016.1 0.0
01/05:30am 20.2 19.3 16.8 81 2.1 E 17 20 9 11 1016.0 1016.0 0.0
01/05:00am 20.3 20.6 17.1 82 1.9 E 11 13 6 7 1015.9 1015.9 0.0
01/04:30am 20.5 20.3 16.7 79 2.3 ESE 13 15 7 8 1015.9 1015.9 0.0
01/04:00am 20.4 19.9 17.0 81 2.1 E 15 19 8 10 1015.8 1015.8 0.0
01/03:30am 20.3 19.6 17.3 83 1.8 ESE 17 20 9 11 1015.9 1015.9 0.0
01/03:00am 20.4 20.2 17.6 84 1.7 ESE 15 17 8 9 1016.1 1016.1 0.0
01/02:30am 20.6 20.9 17.8 84 1.7 E 13 19 7 10 1016.7 1016.7 0.0
01/02:00am 21.0 20.0 17.6 81 2.1 E 19 22 10 12 1016.7 1016.7 0.0
01/01:30am 21.3 21.2 17.9 81 2.1 E 15 20 8 11 1016.8 1016.8 0.0
01/01:00am 21.4 22.5 18.8 85 1.6 SE 11 19 6 10 1016.9 1016.9 0.0
01/12:30am 21.4 22.7 19.3 88 1.3 ESE 11 17 6 9 1017.0 1017.0 0.0
01/12:00am 21.4 22.4 19.5 89 1.2 E 13 19 7 10 1016.9 1016.9 0.0
 
Date/Time
WST
Temp
°C
App
Temp
°C
Dew
Point
°C
Rel
Hum
%
Delta-T
°C
Wind Press
QNH
hPa
Press
MSL
hPa
Rain since
9am
mm
Dir  Spd
km/h
Gust
km/h
Spd
kts
Gust
kts
30/11:30pm 21.4 22.5 19.7 90 1.1 SE 13 19 7 10 1017.0 1017.0 0.0
30/11:00pm 21.5 20.9 19.8 90 1.1 E 22 28 12 15 1017.1 1017.1 0.0
30/10:30pm 21.5 21.0 20.0 91 1.0 SE 22 28 12 15 1017.3 1017.3 0.0
30/10:00pm 21.7 21.8 20.0 90 1.1 SE 19 22 10 12 1018.0 1018.0 0.0
30/09:30pm 21.8 23.8 19.9 89 1.2 SE 9 19 5 10 1018.4 1018.4 0.0
30/09:00pm 22.0 24.4 20.1 89 1.2 E 7 15 4 8 1018.0 1018.0 0.0
30/08:30pm 22.0 23.7 20.1 89 1.2 SE 11 17 6 9 1017.3 1017.3 0.0
30/08:00pm 22.1 22.2 20.4 90 1.1 SE 20 26 11 14 1016.9 1016.9 0.0
30/07:30pm 22.2 22.4 20.1 88 1.4 SE 19 22 10 12 1016.9 1016.9 0.0
30/07:00pm 22.3 23.1 19.8 86 1.6 SSE 15 20 8 11 1016.9 1016.9 0.0
30/06:30pm 22.5 23.3 19.9 85 1.7 SSE 15 17 8 9 1016.6 1016.6 0.0
30/06:00pm 22.7 23.9 19.9 84 1.8 SE 13 17 7 9 1016.2 1016.2 0.0
30/05:30pm 23.1 23.4 19.5 80 2.3 SSE 17 20 9 11 1015.9 1015.9 0.0
30/05:00pm 23.3 23.4 19.2 78 2.6 SSE 17 20 9 11 1015.5 1015.5 0.0
30/04:30pm 23.8 24.0 19.3 76 2.9 SSE 17 20 9 11 1015.1 1015.1 0.0
30/04:00pm 23.9 23.5 19.0 74 3.1 SSE 19 24 10 13 1014.9 1014.9 0.0
30/03:30pm 23.8 23.8 18.9 74 3.1 SSE 17 20 9 11 1014.9 1014.9 0.0
30/03:00pm 23.7 23.2 18.6 73 3.2 SSE 19 24 10 13 1014.9 1014.9 0.0
30/02:30pm 24.1 23.8 18.3 70 3.7 S 17 20 9 11 1014.9 1014.9 0.0
30/02:00pm 24.0 24.2 19.3 75 3.0 SSE 17 20 9 11 1015.1 1015.1 0.0
30/01:30pm 23.7 24.5 19.8 79 2.5 SE 15 20 8 11 1015.3 1015.3 0.0
30/01:00pm 23.4 23.2 19.8 80 2.3 ESE 20 26 11 14 1015.5 1015.5 0.0
30/12:30pm 22.9 22.2 18.7 77 2.7 ESE 20 26 11 14 1015.8 1015.8 0.0
30/12:00pm 21.6 19.9 18.2 81 2.1 E 24 28 13 15 1016.2 1016.2 0.0
30/11:30am 21.0 19.2 17.8 82 2.0 ESE 24 28 13 15 1016.6 1016.6 0.0
30/11:00am 21.4 21.0 18.8 85 1.6 ESE 19 24 10 13 1017.2 1017.2 0.0
30/10:30am 21.3 20.6 18.3 83 1.9 E 19 22 10 12 1017.3 1017.3 0.0
30/10:00am 21.8 21.2 17.6 77 2.6 E 17 22 9 12 1017.7 1017.7 0.0
30/09:30am 21.8 21.5 18.2 80 2.2 E 17 20 9 11 1017.8 1017.8 0.0
30/09:00am 21.8 20.9 18.2 80 2.2 NE 20 28 11 15 1017.9 1017.9 0.0
30/08:30am 22.6 22.0 18.8 79 2.4 NE 20 28 11 15 1017.5 1017.5 0.0
30/08:00am 21.8 23.7 20.6 93 0.8 ENE 11 15 6 8 1017.3 1017.3 0.0
30/07:30am 21.4 22.9 19.7 90 1.1 E 11 13 6 7 1016.9 1016.9 0.0
30/07:00am 21.0 22.8 19.5 91 1.0 NE 9 13 5 7 1016.7 1016.7 0.0
30/06:30am 20.6 21.7 18.9 90 1.1 ENE 11 13 6 7 1016.1 1016.1 0.0
30/06:00am 20.6 23.9 19.1 91 0.9 CALM 0 0 0 0 1015.8 1015.8 0.0
30/05:30am 20.5 23.3 18.8 90 1.1 SSE 2 7 1 4 1015.5 1015.5 0.0
30/05:00am 20.3 22.5 19.1 93 0.8 S 6 7 3 4 1015.3 1015.3 0.0
30/04:30am 19.9 21.4 18.9 94 0.6 SSW 9 9 5 5 1015.3 1015.3 0.0
30/04:00am 19.3 21.2 18.6 96 0.4 SSE 6 7 3 4 1015.4 1015.4 0.0
30/03:30am 19.0 20.6 18.3 96 0.4 S 7 9 4 5 1015.5 1015.5 0.0
30/03:00am 19.3 20.5 18.3 94 0.6 SSW 9 11 5 6 1015.7 1015.7 0.0
30/02:30am 19.7 22.7 18.5 93 0.7 CALM 0 0 0 0 1015.9 1015.9 0.0
30/02:00am 19.5 21.7 18.3 93 0.7 SSW 4 7 2 4 1015.9 1015.9 0.0
30/01:30am 20.5 22.9 17.9 85 1.6 WSW 2 7 1 4 1016.6 1016.6 0.0
30/01:00am 20.2 23.1 18.3 89 1.2 CALM 0 0 0 0 1016.7 1016.7 0.0
30/12:30am 22.1 23.2 17.2 74 3.0 WNW 7 7 4 4 1016.8 1016.8 0.0
30/12:00am 22.1 23.5 17.9 77 2.6 NW 7 9 4 5 1017.0 1017.0 0.0
 
Date/Time
WST
Temp
°C
App
Temp
°C
Dew
Point
°C
Rel
Hum
%
Delta-T
°C
Wind Press
QNH
hPa
Press
MSL
hPa
Rain since
9am
mm
Dir  Spd
km/h
Gust
km/h
Spd
kts
Gust
kts
29/11:30pm 22.1 23.7 18.3 79 2.4 WNW 7 9 4 5 1017.2 1017.2 0.0
29/11:00pm 22.1 24.1 19.1 83 1.9 WNW 7 9 4 5 1017.4 1017.4 0.0
29/10:30pm 22.1 24.2 18.9 82 2.0 W 6 7 3 4 1017.5 1017.5 0.0
29/10:00pm 22.3 23.7 18.7 80 2.3 W 9 13 5 7 1017.5 1017.5 0.0
29/09:30pm 22.5 23.6 18.9 80 2.3 WSW 11 13 6 7 1017.5 1017.5 0.0
29/09:00pm 22.9 23.3 18.9 78 2.5 WSW 15 17 8 9 1017.3 1017.3 0.0
29/08:30pm 23.2 23.8 20.3 84 1.9 WSW 17 20 9 11 1017.1 1017.1 0.0
29/08:00pm 22.4 22.4 17.1 72 3.3 SSW 13 13 7 7 1017.0 1017.0 0.0
29/07:30pm 23.2 25.4 16.5 66 4.1 CALM 0 0 0 0 1016.6 1016.6 0.0
29/07:00pm 23.9 24.5 15.4 59 5.1 N 6 9 3 5 1016.3 1016.3 0.0
29/06:30pm 24.0 23.8 15.8 60 5.0 NNE 11 13 6 7 1015.9 1015.9 0.0
29/06:00pm 24.3 24.0 15.5 58 5.3 NNE 11 15 6 8 1015.6 1015.6 0.0
29/05:30pm 25.2 24.3 14.9 52 6.2 NNE 13 15 7 8 1015.5 1015.5 0.0
29/05:00pm 26.3 25.2 14.4 48 7.1 NNE 13 15 7 8 1015.1 1015.1 0.0
29/04:30pm 27.1 26.1 14.5 46 7.6 NNE 13 15 7 8 1014.8 1014.8 0.0
29/04:00pm 27.8 26.5 13.7 42 8.4 NNE 13 15 7 8 1014.7 1014.7 0.0
29/03:30pm 28.8 27.7 14.2 40 8.8 NNE 13 15 7 8 1014.4 1014.4 0.0
29/03:00pm 29.0 27.8 14.0 39 9.0 NNE 13 15 7 8 1014.5 1014.5 0.0
29/02:30pm 28.6 27.4 14.1 41 8.7 NNE 13 15 7 8 1014.6 1014.6 0.0
29/02:00pm 28.3 28.2 14.9 44 8.1 NNE 9 15 5 8 1014.7 1014.7 0.0
29/01:30pm 28.5 28.2 15.4 45 8.0 NE 11 13 6 7 1014.9 1014.9 0.0
29/01:00pm 28.1 27.5 14.7 44 8.1 NE 11 15 6 8 1015.1 1015.1 0.0
29/12:30pm 27.8 26.5 14.8 45 7.9 NE 15 19 8 10 1015.6 1015.6 0.0
29/12:00pm 27.8 26.3 14.1 43 8.2 ENE 15 17 8 9 1016.0 1016.0 0.0
29/11:30am 27.1 25.7 14.5 46 7.6 ENE 15 19 8 10 1016.4 1016.4 0.0
29/11:00am 26.4 25.2 15.1 49 6.8 ENE 15 19 8 10 1016.6 1016.6 0.0
29/10:30am 25.5 24.2 14.9 52 6.4 ENE 15 17 8 9 1016.8 1016.8 0.0
29/10:00am 24.5 24.0 16.0 59 5.2 E 13 15 7 8 1017.2 1017.2 0.0
29/09:30am 23.7 23.3 15.2 59 5.1 E 11 13 6 7 1017.3 1017.3 0.0
29/09:00am 22.8 22.3 14.9 61 4.7 ENE 11 13 6 7 1017.4 1017.4 0.2
29/08:30am 21.5 22.4 16.0 71 3.3 ENE 6 7 3 4 1017.2 1017.2 0.2
29/08:00am 19.7 20.4 15.6 77 2.4 SE 6 7 3 4 1017.0 1017.0 0.2
29/07:30am 17.7 18.9 16.0 90 1.0 SSE 4 11 2 6 1016.7 1016.7 0.2
29/07:00am 17.1 18.9 15.4 90 1.0 CALM 0 0 0 0 1016.3 1016.3 0.2
29/06:30am 17.1 17.6 14.9 87 1.3 SSE 6 7 3 4 1016.2 1016.2 0.2
29/06:00am 17.2 18.6 15.4 89 1.0 ENE 2 6 1 3 1016.0 1016.0 0.2
29/05:30am 16.7 17.2 15.6 93 0.6 SE 7 9 4 5 1015.7 1015.7 0.2
29/05:00am 16.9 16.7 15.8 93 0.6 SSE 11 13 6 7 1015.5 1015.5 0.2
29/04:30am 16.9 17.0 15.6 92 0.8 S 9 11 5 6 1015.6 1015.6 0.2
29/04:00am 17.1 17.3 15.8 92 0.8 S 9 11 5 6 1015.7 1015.7 0.2
29/03:30am 17.1 17.7 15.8 92 0.8 SSW 7 9 4 5 1015.7 1015.7 0.2
29/03:00am 17.2 17.5 15.9 92 0.8 S 9 11 5 6 1015.8 1015.8 0.2
29/02:30am 17.4 16.9 15.9 91 0.9 SSE 13 13 7 7 1016.0 1016.0 0.2
29/02:00am 17.6 17.1 15.9 90 1.0 SSE 13 13 7 7 1016.3 1016.3 0.2
29/01:30am 17.5 17.4 16.0 91 0.9 S 11 13 6 7 1016.6 1016.6 0.2
29/01:00am 17.6 18.0 16.3 92 0.8 S 9 11 5 6 1016.7 1016.7 0.2
29/12:30am 17.8 18.6 16.3 91 0.9 S 7 9 4 5 1016.7 1016.7 0.2
29/12:00am 17.9 18.7 16.4 91 0.9 S 7 9 4 5 1016.8 1016.8 0.2
 
Date/Time
WST
Temp
°C
App
Temp
°C
Dew
Point
°C
Rel
Hum
%
Delta-T
°C
Wind Press
QNH
hPa
Press
MSL
hPa
Rain since
9am
mm
Dir  Spd
km/h
Gust
km/h
Spd
kts
Gust
kts
28/11:30pm 18.0 18.6 16.9 93 0.7 SSW 9 11 5 6 1016.9 1016.9 0.2
28/11:00pm 18.3 18.2 17.0 92 0.8 S 13 13 7 7 1016.8 1016.8 0.2
28/10:30pm 18.6 19.7 17.1 91 0.9 S 7 11 4 6 1016.7 1016.7 0.2
28/10:00pm 19.2 20.7 17.7 91 0.9 ESE 6 6 3 3 1016.7 1016.7 0.2
28/09:30pm 19.3 20.8 18.0 92 0.8 ESE 7 9 4 5 1016.7 1016.7 0.2
28/09:00pm 19.6 21.1 18.1 91 0.9 ESE 7 9 4 5 1016.6 1016.6 0.2
28/08:30pm 20.0 22.8 18.0 88 1.2 CALM 0 0 0 0 1016.4 1016.4 0.2
28/08:00pm 20.6 23.0 17.0 80 2.2 CALM 0 0 0 0 1016.1 1016.1 0.2
28/07:30pm 20.5 21.5 16.9 80 2.2 NNE 7 11 4 6 1015.9 1015.9 0.2
28/07:00pm 21.0 21.1 16.6 76 2.7 NNE 11 13 6 7 1015.7 1015.7 0.2
28/06:30pm 21.3 22.3 16.9 76 2.7 NNE 7 9 4 5 1015.3 1015.3 0.2
28/06:00pm 22.2 23.1 16.0 68 3.7 NNE 6 7 3 4 1014.8 1014.8 0.2
28/05:30pm 23.3 23.7 15.4 61 4.7 NNE 7 9 4 5 1014.5 1014.5 0.2
28/05:00pm 24.1 23.9 14.8 56 5.5 NE 9 11 5 6 1014.3 1014.3 0.2
28/04:30pm 24.4 23.5 14.8 55 5.7 NE 13 15 7 8 1014.2 1014.2 0.2
28/04:00pm 24.6 22.9 14.7 54 5.9 NE 17 20 9 11 1014.2 1014.2 0.2
28/03:30pm 25.0 22.5 13.5 48 6.7 NE 19 20 10 11 1014.3 1014.3 0.2
28/03:00pm 25.0 22.7 12.9 47 7.0 NE 17 20 9 11 1014.4 1014.4 0.2
28/02:30pm 25.4 23.6 13.3 47 7.1 NNE 15 20 8 11 1014.7 1014.7 0.2
28/02:00pm 25.1 22.2 10.9 41 7.9 NE 17 20 9 11 1014.8 1014.8 0.2
28/01:30pm 25.0 22.0 10.8 41 7.9 NE 17 20 9 11 1015.1 1015.1 0.2
28/01:00pm 25.0 22.9 11.2 42 7.8 NE 13 17 7 9 1015.5 1015.5 0.2
28/12:30pm 24.7 21.5 9.8 39 8.2 NE 17 20 9 11 1016.1 1016.1 0.2
28/12:00pm 24.8 21.5 9.5 38 8.3 ENE 17 22 9 12 1016.4 1016.4 0.2
28/11:30am 24.3 20.7 8.3 36 8.5 ENE 17 22 9 12 1016.8 1016.8 0.2
28/11:00am 23.6 19.4 7.3 35 8.5 ENE 19 22 10 12 1017.4 1017.4 0.2

Other Formats:

Comma delimited format used in spreadsheet applications
http://www.bom.gov.au/fwo/IDW60801/IDW60801.95307.axf

JavaScript Object Notation format (JSON) in row-major order
http://www.bom.gov.au/fwo/IDW60801/IDW60801.95307.json